createdAt,value
2019-04-07T00:00:58.711Z,8.91
2019-04-07T00:01:58.702Z,8.85
2019-04-07T00:02:58.688Z,8.83
2019-04-07T00:03:58.676Z,8.85
2019-04-07T00:05:10.145Z,8.76
2019-04-07T00:05:59.779Z,8.76
2019-04-07T00:06:58.799Z,8.75
2019-04-07T00:07:59.173Z,8.89
2019-04-07T00:08:58.619Z,8.85
2019-04-07T00:09:58.633Z,8.86
2019-04-07T00:10:58.940Z,8.85
2019-04-07T00:11:59.132Z,8.93
2019-04-07T00:12:58.578Z,8.78
2019-04-07T00:13:58.915Z,8.70
2019-04-07T00:14:58.578Z,8.75
2019-04-07T00:15:59.023Z,8.71
2019-04-07T00:16:58.531Z,8.75
2019-04-07T00:17:59.207Z,8.68
2019-04-07T00:18:58.554Z,8.73
2019-04-07T00:19:58.679Z,8.71
2019-04-07T00:20:58.548Z,8.65
2019-04-07T00:21:58.478Z,8.64
2019-04-07T00:22:58.478Z,8.70
2019-04-07T00:23:58.451Z,8.67
2019-04-07T00:24:58.462Z,8.67
2019-04-07T00:25:58.913Z,8.58
2019-04-07T00:26:58.420Z,8.65
2019-04-07T00:27:58.553Z,8.61
2019-04-07T00:28:58.730Z,8.58
2019-04-07T00:29:58.460Z,8.58
2019-04-07T00:30:58.392Z,8.57
2019-04-07T00:31:58.361Z,8.57
2019-04-07T00:32:58.447Z,8.60
2019-04-07T00:33:58.338Z,8.60
2019-04-07T00:34:58.607Z,8.49
2019-04-07T00:35:58.314Z,8.52
2019-04-07T00:36:58.823Z,8.57
2019-04-07T00:37:58.356Z,8.54
2019-04-07T00:38:58.294Z,8.54
2019-04-07T00:39:58.934Z,8.54
2019-04-07T00:40:58.257Z,8.52
2019-04-07T00:41:58.356Z,8.45
2019-04-07T00:42:58.362Z,8.46
2019-04-07T00:43:58.239Z,8.43
2019-04-07T00:44:58.691Z,8.36
2019-04-07T00:45:58.228Z,8.32
2019-04-07T00:46:58.644Z,8.24
2019-04-07T00:47:58.180Z,8.32
2019-04-07T00:48:58.169Z,8.27
2019-04-07T00:49:58.727Z,8.22
2019-04-07T00:50:58.172Z,8.27
2019-04-07T00:51:58.468Z,8.29
2019-04-07T00:52:58.131Z,8.25
2019-04-07T00:53:58.124Z,8.24
2019-04-07T00:54:58.787Z,8.28
2019-04-07T00:55:58.128Z,8.34
2019-04-07T00:56:58.079Z,8.36
2019-04-07T00:57:58.387Z,8.34
2019-04-07T00:58:58.054Z,8.36
2019-04-07T00:59:58.044Z,8.29
2019-04-07T01:00:58.816Z,8.25
2019-04-07T01:01:58.093Z,8.22
2019-04-07T01:02:58.293Z,8.18
2019-04-07T01:03:58.407Z,8.24
2019-04-07T01:04:58.373Z,8.17
2019-04-07T01:05:58.681Z,8.18
2019-04-07T01:06:57.974Z,8.25
2019-04-07T01:07:58.424Z,8.24
2019-04-07T01:08:57.950Z,8.25
2019-04-07T01:09:58.514Z,8.13
2019-04-07T01:10:58.058Z,8.12
2019-04-07T01:11:58.563Z,8.18
2019-04-07T01:12:57.900Z,8.17
2019-04-07T01:13:58.184Z,7.96
2019-04-07T01:14:57.872Z,8.02
2019-04-07T01:15:58.052Z,8.00
2019-04-07T01:16:58.310Z,8.06
2019-04-07T01:17:57.870Z,7.99
2019-04-07T01:18:57.971Z,7.96
2019-04-07T01:19:57.823Z,7.99
2019-04-07T01:20:58.333Z,7.94
2019-04-07T01:21:57.807Z,7.91
2019-04-07T01:22:57.821Z,7.88
2019-04-07T01:23:57.918Z,7.92
2019-04-07T01:24:58.384Z,7.88
2019-04-07T01:25:58.460Z,7.95
2019-04-07T01:26:57.746Z,7.88
2019-04-07T01:27:57.844Z,7.84
2019-04-07T01:28:58.141Z,7.85
2019-04-07T01:29:57.727Z,7.85
2019-04-07T01:30:57.919Z,7.88
2019-04-07T01:31:58.403Z,7.82
2019-04-07T01:32:57.673Z,7.84
2019-04-07T01:33:57.662Z,7.92
2019-04-07T01:34:58.073Z,7.81
2019-04-07T01:35:57.637Z,7.85
2019-04-07T01:36:58.369Z,7.85
2019-04-07T01:37:58.256Z,7.86
2019-04-07T01:38:57.607Z,7.77
2019-04-07T01:39:58.056Z,7.77
2019-04-07T01:40:57.588Z,7.79
2019-04-07T01:41:57.618Z,7.81
2019-04-07T01:42:57.560Z,7.79
2019-04-07T01:43:57.546Z,7.76
2019-04-07T01:44:57.565Z,7.82
2019-04-07T01:45:57.542Z,7.86
2019-04-07T01:46:58.127Z,7.77
2019-04-07T01:47:57.502Z,7.79
2019-04-07T01:48:57.531Z,7.79
2019-04-07T01:49:57.803Z,7.74
2019-04-07T01:50:57.469Z,7.76
2019-04-07T01:51:57.653Z,7.66
2019-04-07T01:52:57.980Z,7.79
2019-04-07T01:53:57.472Z,7.66
2019-04-07T01:54:57.542Z,7.76
2019-04-07T01:55:57.581Z,7.71
2019-04-07T01:56:58.041Z,7.81
2019-04-07T01:57:57.389Z,7.71
2019-04-07T01:58:57.396Z,7.74
2019-04-07T01:59:57.419Z,7.73
2019-04-07T02:00:57.587Z,7.69
2019-04-07T02:01:57.349Z,7.74
2019-04-07T02:02:57.354Z,7.74
2019-04-07T02:03:57.342Z,7.74
2019-04-07T02:04:57.969Z,7.71
2019-04-07T02:06:01.582Z,7.71
2019-04-07T02:06:58.293Z,7.73
2019-04-07T02:07:57.301Z,7.79
2019-04-07T02:08:57.277Z,7.66
2019-04-07T02:09:57.360Z,7.70
2019-04-07T02:10:57.242Z,7.88
2019-04-07T02:11:57.235Z,7.76
2019-04-07T02:12:57.855Z,7.86
2019-04-07T02:13:57.220Z,7.85
2019-04-07T02:14:57.518Z,7.82
2019-04-07T02:15:57.750Z,7.86
2019-04-07T02:16:57.785Z,7.85
2019-04-07T02:17:57.220Z,7.99
2019-04-07T02:18:57.152Z,7.96
2019-04-07T02:19:57.182Z,8.00
2019-04-07T02:20:57.643Z,8.04
2019-04-07T02:21:57.119Z,8.03
2019-04-07T02:22:57.395Z,8.00
2019-04-07T02:23:57.567Z,8.18
2019-04-07T02:24:57.572Z,8.09
2019-04-07T02:25:57.075Z,8.22
2019-04-07T02:26:57.647Z,8.25
2019-04-07T02:27:57.075Z,8.20
2019-04-07T02:28:57.216Z,8.31
2019-04-07T02:29:57.845Z,8.36
2019-04-07T02:30:57.366Z,8.29
2019-04-07T02:31:57.065Z,8.36
2019-04-07T02:32:58.130Z,8.29
2019-04-07T02:33:57.505Z,8.36
2019-04-07T02:34:57.476Z,8.37
2019-04-07T02:36:12.810Z,8.31
2019-04-07T02:36:58.288Z,8.32
2019-04-07T02:37:57.061Z,8.29
2019-04-07T02:38:56.929Z,8.39
2019-04-07T02:39:56.919Z,8.31
2019-04-07T02:40:56.903Z,8.31
2019-04-07T02:41:57.130Z,8.32
2019-04-07T02:42:57.544Z,8.36
2019-04-07T02:43:56.872Z,8.43
2019-04-07T02:44:57.304Z,8.39
2019-04-07T02:45:57.771Z,8.39
2019-04-07T02:46:56.922Z,8.32
2019-04-07T02:47:57.657Z,8.27
2019-04-07T02:48:57.765Z,8.32
2019-04-07T02:49:56.808Z,8.28
2019-04-07T02:50:57.126Z,8.25
2019-04-07T02:51:56.785Z,8.36
2019-04-07T02:52:57.223Z,8.27
2019-04-07T02:53:57.061Z,8.36
2019-04-07T02:54:57.300Z,8.36
2019-04-07T02:55:56.907Z,8.37
2019-04-07T02:56:56.739Z,8.24
2019-04-07T02:57:56.742Z,8.29
2019-04-07T02:58:56.706Z,8.24
2019-04-07T02:59:57.782Z,8.27
2019-04-07T03:00:57.690Z,8.28
2019-04-07T03:01:57.502Z,8.28
2019-04-07T03:02:56.659Z,8.22
2019-04-07T03:03:57.635Z,8.22
2019-04-07T03:04:56.824Z,8.22
2019-04-07T03:05:56.627Z,8.25
2019-04-07T03:06:56.874Z,8.24
2019-04-07T03:07:56.604Z,8.22
2019-04-07T03:08:57.177Z,8.24
2019-04-07T03:09:56.815Z,8.22
2019-04-07T03:10:57.031Z,8.20
2019-04-07T03:11:57.677Z,8.32
2019-04-07T03:12:57.462Z,8.25
2019-04-07T03:13:57.238Z,8.36
2019-04-07T03:14:56.524Z,8.34
2019-04-07T03:15:56.810Z,8.32
2019-04-07T03:16:56.502Z,8.47
2019-04-07T03:17:57.332Z,8.37
2019-04-07T03:18:56.647Z,8.40
2019-04-07T03:19:56.482Z,8.42
2019-04-07T03:20:56.457Z,8.40
2019-04-07T03:21:56.712Z,8.45
2019-04-07T03:22:56.436Z,8.40
2019-04-07T03:23:56.581Z,8.43
2019-04-07T03:24:56.991Z,8.40
2019-04-07T03:25:56.728Z,8.32
2019-04-07T03:26:56.600Z,8.27
2019-04-07T03:27:57.273Z,8.20
2019-04-07T03:28:56.405Z,8.31
2019-04-07T03:29:56.743Z,8.25
2019-04-07T03:30:58.523Z,8.29
2019-04-07T03:31:58.788Z,8.36
2019-04-07T03:32:58.001Z,8.34
2019-04-07T03:33:58.254Z,8.34
2019-04-07T03:34:58.183Z,8.27
2019-04-07T03:36:00.771Z,8.28
2019-04-07T03:37:25.832Z,8.36
2019-04-07T03:37:57.369Z,8.32
2019-04-07T03:38:56.292Z,8.34
2019-04-07T03:39:56.945Z,8.36
2019-04-07T03:40:56.951Z,8.36
2019-04-07T03:41:56.216Z,8.31
2019-04-07T03:42:56.472Z,8.27
2019-04-07T03:43:57.039Z,8.36
2019-04-07T03:44:56.671Z,8.31
2019-04-07T03:45:57.193Z,8.31
2019-04-07T03:46:57.194Z,8.20
2019-04-07T03:47:56.148Z,8.22
2019-04-07T03:48:56.162Z,8.14
2019-04-07T03:49:56.973Z,8.12
2019-04-07T03:50:56.908Z,8.10
2019-04-07T03:51:56.137Z,8.06
2019-04-07T03:52:56.486Z,7.99
2019-04-07T03:53:56.102Z,7.96
2019-04-07T03:54:57.112Z,7.92
2019-04-07T03:55:56.088Z,7.95
2019-04-07T03:56:56.523Z,7.96
2019-04-07T03:57:56.931Z,7.86
2019-04-07T03:58:56.030Z,7.99
2019-04-07T03:59:56.041Z,7.81
2019-04-07T04:00:56.295Z,7.79
2019-04-07T04:01:55.995Z,7.79
2019-04-07T04:02:56.770Z,7.73
2019-04-07T04:03:56.655Z,7.60
2019-04-07T04:04:55.992Z,7.66
2019-04-07T04:05:55.949Z,7.66
2019-04-07T04:06:56.766Z,7.60
2019-04-07T04:07:56.788Z,7.62
2019-04-07T04:08:56.136Z,7.52
2019-04-07T04:09:55.966Z,7.54
2019-04-07T04:10:56.663Z,7.52
2019-04-07T04:11:55.887Z,7.55
2019-04-07T04:12:56.486Z,7.54
2019-04-07T04:13:55.982Z,7.58
2019-04-07T04:14:56.796Z,7.57
2019-04-07T04:15:56.656Z,7.57
2019-04-07T04:16:56.486Z,7.57
2019-04-07T04:17:55.820Z,7.50
2019-04-07T04:18:56.583Z,7.44
2019-04-07T04:19:55.792Z,7.39
2019-04-07T04:20:55.930Z,7.36
2019-04-07T04:21:55.769Z,7.29
2019-04-07T04:22:55.780Z,7.19
2019-04-07T04:23:55.778Z,7.24
2019-04-07T04:24:55.771Z,7.19
2019-04-07T04:25:56.070Z,7.18
2019-04-07T04:26:55.713Z,7.16
2019-04-07T04:27:55.704Z,7.12
2019-04-07T04:28:56.578Z,7.14
2019-04-07T04:29:56.604Z,7.14
2019-04-07T04:30:56.672Z,7.14
2019-04-07T04:31:55.746Z,7.05
2019-04-07T04:32:55.645Z,7.01
2019-04-07T04:33:55.707Z,7.07
2019-04-07T04:34:56.231Z,7.04
2019-04-07T04:35:55.928Z,6.97
2019-04-07T04:36:56.295Z,6.99
2019-04-07T04:37:56.529Z,6.96
2019-04-07T04:38:55.636Z,6.94
2019-04-07T04:39:55.826Z,6.90
2019-04-07T04:40:55.595Z,6.91
2019-04-07T04:41:55.740Z,6.94
2019-04-07T04:42:55.532Z,6.89
2019-04-07T04:43:55.524Z,6.86
2019-04-07T04:44:55.565Z,6.99
2019-04-07T04:45:56.679Z,6.97
2019-04-07T04:46:56.148Z,7.04
2019-04-07T04:47:56.192Z,6.99
2019-04-07T04:48:55.803Z,7.04
2019-04-07T04:49:55.456Z,7.00
2019-04-07T04:50:56.029Z,7.00
2019-04-07T04:51:56.066Z,6.97
2019-04-07T04:52:55.427Z,6.90
2019-04-07T04:53:56.296Z,7.00
2019-04-07T04:54:55.403Z,6.91
2019-04-07T04:55:55.679Z,6.96
2019-04-07T04:56:55.379Z,6.91
2019-04-07T04:57:55.371Z,6.96
2019-04-07T04:58:55.353Z,6.91
2019-04-07T04:59:55.961Z,6.91
2019-04-07T05:00:55.440Z,6.94
2019-04-07T05:01:55.426Z,6.90
2019-04-07T05:02:56.037Z,6.83
2019-04-07T05:03:55.903Z,6.87
2019-04-07T05:04:56.125Z,6.86
2019-04-07T05:05:55.495Z,6.83
2019-04-07T05:06:55.264Z,6.72
2019-04-07T05:08:00.778Z,6.71
2019-04-07T05:08:56.547Z,6.69
2019-04-07T05:09:56.663Z,6.73
2019-04-07T05:10:55.247Z,6.71
2019-04-07T05:11:55.221Z,6.73
2019-04-07T05:12:55.198Z,6.71
2019-04-07T05:13:55.493Z,6.82
2019-04-07T05:14:55.177Z,6.82
2019-04-07T05:15:55.192Z,6.79
2019-04-07T05:16:55.961Z,6.82
2019-04-07T05:17:55.152Z,6.83
2019-04-07T05:18:55.148Z,6.81
2019-04-07T05:19:55.118Z,6.76
2019-04-07T05:20:55.324Z,6.76
2019-04-07T05:21:55.132Z,6.82
2019-04-07T05:22:55.084Z,6.86
2019-04-07T05:23:55.072Z,6.81
2019-04-07T05:24:55.560Z,6.76
2019-04-07T05:25:55.687Z,6.87
2019-04-07T05:26:55.176Z,6.76
2019-04-07T05:27:55.826Z,6.71
2019-04-07T05:28:55.090Z,6.86
2019-04-07T05:29:55.616Z,6.71
2019-04-07T05:30:54.993Z,6.75
2019-04-07T05:31:55.713Z,6.71
2019-04-07T05:32:55.570Z,6.72
2019-04-07T05:33:55.372Z,6.75
2019-04-07T05:34:55.590Z,6.71
2019-04-07T05:35:54.943Z,6.72
2019-04-07T05:36:55.326Z,6.79
2019-04-07T05:38:02.709Z,6.79
2019-04-07T05:38:56.289Z,6.72
2019-04-07T05:39:55.036Z,6.79
2019-04-07T05:40:55.348Z,6.87
2019-04-07T05:41:54.898Z,6.97
2019-04-07T05:42:55.514Z,6.89
2019-04-07T05:43:54.845Z,7.09
2019-04-07T05:44:55.177Z,6.93
2019-04-07T05:45:55.478Z,7.04
2019-04-07T05:46:54.901Z,7.01
2019-04-07T05:47:55.410Z,7.07
2019-04-07T05:48:55.479Z,6.93
2019-04-07T05:49:57.441Z,7.05
2019-04-07T05:50:57.928Z,7.01
2019-04-07T05:51:55.377Z,7.01
2019-04-07T05:52:54.746Z,7.00
2019-04-07T05:53:54.735Z,7.01
2019-04-07T05:54:54.725Z,7.11
2019-04-07T05:55:56.077Z,7.01
2019-04-07T05:56:58.762Z,7.21
2019-04-07T05:57:55.782Z,7.26
2019-04-07T05:58:54.942Z,7.24
2019-04-07T05:59:54.906Z,7.41
2019-04-07T06:00:54.806Z,7.47
2019-04-07T06:01:59.285Z,7.54
2019-04-07T06:02:56.039Z,7.60
2019-04-07T06:03:54.680Z,7.63
2019-04-07T06:04:54.628Z,7.70
2019-04-07T06:05:55.006Z,7.70
2019-04-07T06:06:56.203Z,7.71
2019-04-07T06:07:54.574Z,7.70
2019-04-07T06:08:55.091Z,7.79
2019-04-07T06:09:54.554Z,7.89
2019-04-07T06:10:59.948Z,7.86
2019-04-07T06:11:55.536Z,7.99
2019-04-07T06:12:55.326Z,7.88
2019-04-07T06:13:54.514Z,7.95
2019-04-07T06:14:55.160Z,7.99
2019-04-07T06:15:54.489Z,8.02
2019-04-07T06:16:55.733Z,8.02
2019-04-07T06:17:58.780Z,8.09
2019-04-07T06:18:55.581Z,8.00
2019-04-07T06:19:54.443Z,7.96
2019-04-07T06:20:54.451Z,8.06
2019-04-07T06:21:54.420Z,7.99
2019-04-07T06:22:54.694Z,8.09
2019-04-07T06:23:58.557Z,8.14
2019-04-07T06:24:56.014Z,8.20
2019-04-07T06:25:57.141Z,8.24
2019-04-07T06:26:54.386Z,8.21
2019-04-07T06:27:54.380Z,8.25
2019-04-07T06:28:58.218Z,8.28
2019-04-07T06:29:59.625Z,8.36
2019-04-07T06:30:55.318Z,8.37
2019-04-07T06:31:54.892Z,8.34
2019-04-07T06:32:54.720Z,8.40
2019-04-07T06:33:55.133Z,8.37
2019-04-07T06:34:54.287Z,8.43
2019-04-07T06:35:55.418Z,8.43
2019-04-07T06:36:55.525Z,8.55
2019-04-07T06:37:56.889Z,8.61
2019-04-07T06:38:54.777Z,8.57
2019-04-07T06:39:54.816Z,8.57
2019-04-07T06:40:57.110Z,8.61
2019-04-07T06:41:54.198Z,8.65
2019-04-07T06:42:54.523Z,8.60
2019-04-07T06:44:02.792Z,8.67
2019-04-07T06:44:55.369Z,8.71
2019-04-07T06:45:54.971Z,8.64
2019-04-07T06:46:58.528Z,8.65
2019-04-07T06:47:55.268Z,8.73
2019-04-07T06:48:54.144Z,8.85
2019-04-07T06:49:54.105Z,8.82
2019-04-07T06:50:58.257Z,8.83
2019-04-07T06:51:54.474Z,8.96
2019-04-07T06:52:54.237Z,8.97
2019-04-07T06:53:54.085Z,8.98
2019-04-07T06:54:56.223Z,8.97
2019-04-07T06:55:54.079Z,9.10
2019-04-07T06:56:54.031Z,9.04
2019-04-07T06:57:54.013Z,9.04
2019-04-07T06:58:54.751Z,9.01
2019-04-07T06:59:53.999Z,9.01
2019-04-07T07:00:55.904Z,9.06
2019-04-07T07:01:58.094Z,9.15
2019-04-07T07:02:55.378Z,9.10
2019-04-07T07:03:53.975Z,9.15
2019-04-07T07:04:54.016Z,9.20
2019-04-07T07:05:53.927Z,9.31
2019-04-07T07:06:53.976Z,9.22
2019-04-07T07:07:54.201Z,9.26
2019-04-07T07:08:56.413Z,9.30
2019-04-07T07:09:56.656Z,9.32
2019-04-07T07:10:54.210Z,9.32
2019-04-07T07:11:54.034Z,9.34
2019-04-07T07:12:53.846Z,9.37
2019-04-07T07:13:54.123Z,9.52
2019-04-07T07:14:53.904Z,9.55
2019-04-07T07:15:54.072Z,9.53
2019-04-07T07:16:54.469Z,9.65
2019-04-07T07:17:56.129Z,9.70
2019-04-07T07:18:56.042Z,9.67
2019-04-07T07:19:56.633Z,9.75
2019-04-07T07:20:53.883Z,9.75
2019-04-07T07:21:53.747Z,9.77
2019-04-07T07:22:53.739Z,9.86
2019-04-07T07:23:53.751Z,9.91
2019-04-07T07:24:58.011Z,10.02
2019-04-07T07:25:55.463Z,9.98
2019-04-07T07:26:53.949Z,10.06
2019-04-07T07:27:53.774Z,10.01
2019-04-07T07:28:54.318Z,10.13
2019-04-07T07:29:54.685Z,10.10
2019-04-07T07:30:53.912Z,10.13
2019-04-07T07:31:59.758Z,10.24
2019-04-07T07:32:55.253Z,10.22
2019-04-07T07:33:54.036Z,10.24
2019-04-07T07:34:54.173Z,10.24
2019-04-07T07:35:53.686Z,10.32
2019-04-07T07:36:56.615Z,10.44
2019-04-07T07:37:56.653Z,10.39
2019-04-07T07:39:00.507Z,10.46
2019-04-07T07:39:55.186Z,10.55
2019-04-07T07:40:53.531Z,10.47
2019-04-07T07:41:54.018Z,10.60
2019-04-07T07:42:56.664Z,10.57
2019-04-07T07:43:53.615Z,10.69
2019-04-07T07:44:53.642Z,10.80
2019-04-07T07:45:53.475Z,10.83
2019-04-07T07:46:53.793Z,10.87
2019-04-07T07:47:54.848Z,11.01
2019-04-07T07:48:57.052Z,10.98
2019-04-07T07:49:53.684Z,11.02
2019-04-07T07:50:53.754Z,11.03
2019-04-07T07:51:53.404Z,11.11
2019-04-07T07:52:54.681Z,11.24
2019-04-07T07:53:57.142Z,11.27
2019-04-07T07:54:55.194Z,11.33
2019-04-07T07:55:53.381Z,11.35
2019-04-07T07:56:53.346Z,11.26
2019-04-07T07:57:56.766Z,11.42
2019-04-07T07:58:55.061Z,11.42
2019-04-07T07:59:53.438Z,11.51
2019-04-07T08:00:53.357Z,11.51
2019-04-07T08:01:53.481Z,11.53
2019-04-07T08:02:53.832Z,11.67
2019-04-07T08:03:55.303Z,11.64
2019-04-07T08:04:56.769Z,11.75
2019-04-07T08:05:54.247Z,11.82
2019-04-07T08:06:53.437Z,11.88
2019-04-07T08:07:53.985Z,11.98
2019-04-07T08:08:53.702Z,12.03
2019-04-07T08:09:54.445Z,12.12
2019-04-07T08:10:56.187Z,12.11
2019-04-07T08:11:53.183Z,12.15
2019-04-07T08:12:53.225Z,12.18
2019-04-07T08:13:53.616Z,12.18
2019-04-07T08:14:56.162Z,12.26
2019-04-07T08:15:54.605Z,12.30
2019-04-07T08:16:53.188Z,12.38
2019-04-07T08:17:53.174Z,12.46
2019-04-07T08:18:53.146Z,12.54
2019-04-07T08:19:53.148Z,12.58
2019-04-07T08:20:53.335Z,12.54
2019-04-07T08:21:53.092Z,12.62
2019-04-07T08:22:53.906Z,12.66
2019-04-07T08:23:53.514Z,12.70
2019-04-07T08:24:53.493Z,12.74
2019-04-07T08:25:55.858Z,12.81
2019-04-07T08:26:56.338Z,12.84
2019-04-07T08:27:53.172Z,12.94
2019-04-07T08:28:53.374Z,12.92
2019-04-07T08:29:53.533Z,12.98
2019-04-07T08:30:52.994Z,12.98
2019-04-07T08:31:55.292Z,13.03
2019-04-07T08:32:53.306Z,13.19
2019-04-07T08:33:53.711Z,13.16
2019-04-07T08:34:52.977Z,13.27
2019-04-07T08:35:54.863Z,13.29
2019-04-07T08:36:53.075Z,13.25
2019-04-07T08:37:53.440Z,13.39
2019-04-07T08:38:55.761Z,13.44
2019-04-07T08:39:55.802Z,13.44
2019-04-07T08:40:54.899Z,13.48
2019-04-07T08:41:52.950Z,13.53
2019-04-07T08:42:52.832Z,13.53
2019-04-07T08:43:55.447Z,13.53
2019-04-07T08:44:52.809Z,13.55
2019-04-07T08:45:53.593Z,13.61
2019-04-07T08:46:52.951Z,13.65
2019-04-07T08:47:53.643Z,13.62
2019-04-07T08:48:54.298Z,13.69
2019-04-07T08:49:55.376Z,13.69
2019-04-07T08:50:52.897Z,13.71
2019-04-07T08:51:52.762Z,13.84
2019-04-07T08:52:53.218Z,13.87
2019-04-07T08:53:52.758Z,13.96
2019-04-07T08:54:53.509Z,14.04
2019-04-07T08:55:54.702Z,14.11
2019-04-07T08:56:54.186Z,14.09
2019-04-07T08:57:52.684Z,14.21
2019-04-07T08:58:53.204Z,14.30
2019-04-07T08:59:52.794Z,14.30
2019-04-07T09:00:53.890Z,14.39
2019-04-07T09:01:54.235Z,14.48
2019-04-07T09:03:01.758Z,14.48
2019-04-07T09:03:54.238Z,14.52
2019-04-07T09:04:52.628Z,14.52
2019-04-07T09:05:56.553Z,14.59
2019-04-07T09:06:52.564Z,14.61
2019-04-07T09:07:52.880Z,14.61
2019-04-07T09:08:53.163Z,14.66
2019-04-07T09:09:52.644Z,14.63
2019-04-07T09:10:52.660Z,14.69
2019-04-07T09:11:54.132Z,14.69
2019-04-07T09:12:52.609Z,14.71
2019-04-07T09:13:52.636Z,14.78
2019-04-07T09:14:52.463Z,14.82
2019-04-07T09:15:53.337Z,14.79
2019-04-07T09:16:54.826Z,14.86
2019-04-07T09:17:53.160Z,14.90
2019-04-07T09:19:00.506Z,14.91
2019-04-07T09:19:54.720Z,15.00
2019-04-07T09:20:52.935Z,15.11
2019-04-07T09:21:52.832Z,15.12
2019-04-07T09:22:54.804Z,15.22
2019-04-07T09:23:52.360Z,15.25
2019-04-07T09:24:53.157Z,15.38
2019-04-07T09:25:52.338Z,15.43
2019-04-07T09:26:52.442Z,15.52
2019-04-07T09:27:52.349Z,15.66
2019-04-07T09:28:55.482Z,15.60
2019-04-07T09:29:52.361Z,15.68
2019-04-07T09:30:52.532Z,15.73
2019-04-07T09:31:52.974Z,15.80
2019-04-07T09:32:52.259Z,15.74
2019-04-07T09:33:52.832Z,15.88
2019-04-07T09:34:53.972Z,15.80
2019-04-07T09:35:54.723Z,15.78
2019-04-07T09:36:52.993Z,15.85
2019-04-07T09:37:54.079Z,15.99
2019-04-07T09:38:52.382Z,15.99
2019-04-07T09:39:58.536Z,16.06
2019-04-07T09:40:53.179Z,16.07
2019-04-07T09:41:54.740Z,16.25
2019-04-07T09:42:52.952Z,16.14
2019-04-07T09:43:52.887Z,16.29
2019-04-07T09:44:52.885Z,16.34
2019-04-07T09:45:52.893Z,16.40
2019-04-07T09:46:52.114Z,16.44
2019-04-07T09:47:52.115Z,16.40
2019-04-07T09:48:52.873Z,16.60
2019-04-07T09:49:56.135Z,16.57
2019-04-07T09:50:55.174Z,16.54
2019-04-07T09:51:52.807Z,16.66
2019-04-07T09:52:52.068Z,16.67
2019-04-07T09:53:52.245Z,16.75
2019-04-07T09:54:55.179Z,16.75
2019-04-07T09:55:55.578Z,16.82
2019-04-07T09:56:52.995Z,16.81
2019-04-07T09:57:52.676Z,16.96
2019-04-07T09:58:51.978Z,16.92
2019-04-07T09:59:54.205Z,17.03
2019-04-07T10:00:55.540Z,17.02
2019-04-07T10:01:52.929Z,17.07
2019-04-07T10:02:51.943Z,17.15
2019-04-07T10:03:51.916Z,17.28
2019-04-07T10:04:51.904Z,17.25
2019-04-07T10:05:51.885Z,17.33
2019-04-07T10:06:51.874Z,17.27
2019-04-07T10:07:51.930Z,17.30
2019-04-07T10:08:52.230Z,17.32
2019-04-07T10:10:03.587Z,17.42
2019-04-07T10:10:52.841Z,17.49
2019-04-07T10:11:51.946Z,17.47
2019-04-07T10:12:51.831Z,17.54
2019-04-07T10:13:51.795Z,17.66
2019-04-07T10:14:51.784Z,17.80
2019-04-07T10:15:51.771Z,17.80
2019-04-07T10:16:51.781Z,17.96
2019-04-07T10:17:51.871Z,17.99
2019-04-07T10:18:52.198Z,18.14
2019-04-07T10:19:51.729Z,18.23
2019-04-07T10:20:51.753Z,18.32
2019-04-07T10:21:51.704Z,18.39
2019-04-07T10:22:51.728Z,18.35
2019-04-07T10:23:51.681Z,18.41
2019-04-07T10:24:51.798Z,18.41
2019-04-07T10:25:51.808Z,18.49
2019-04-07T10:26:51.968Z,18.53
2019-04-07T10:27:52.030Z,18.68
2019-04-07T10:28:51.816Z,18.78
2019-04-07T10:29:52.448Z,18.89
2019-04-07T10:30:51.796Z,18.93
2019-04-07T10:31:51.889Z,18.96
2019-04-07T10:32:52.055Z,18.96
2019-04-07T10:33:51.593Z,19.15
2019-04-07T10:34:51.573Z,19.12
2019-04-07T10:35:52.458Z,19.27
2019-04-07T10:36:51.535Z,19.28
2019-04-07T10:37:53.020Z,19.43
2019-04-07T10:38:51.537Z,19.39
2019-04-07T10:39:51.501Z,19.50
2019-04-07T10:40:51.634Z,19.49
2019-04-07T10:41:51.480Z,19.47
2019-04-07T10:42:51.492Z,19.50
2019-04-07T10:43:51.492Z,19.45
2019-04-07T10:44:52.121Z,19.46
2019-04-07T10:45:51.437Z,19.43
2019-04-07T10:46:51.547Z,19.46
2019-04-07T10:47:52.116Z,19.62
2019-04-07T10:48:51.449Z,19.61
2019-04-07T10:49:58.563Z,19.72
2019-04-07T10:50:52.427Z,19.78
2019-04-07T10:51:51.381Z,19.87
2019-04-07T10:52:51.481Z,19.82
2019-04-07T10:53:51.420Z,19.83
2019-04-07T10:54:51.334Z,20.02
2019-04-07T10:55:52.106Z,20.01
2019-04-07T10:56:51.732Z,20.19
2019-04-07T10:57:51.640Z,20.27
2019-04-07T10:58:51.785Z,20.34
2019-04-07T10:59:51.355Z,20.54
2019-04-07T11:00:51.270Z,20.63
2019-04-07T11:01:51.365Z,20.60
2019-04-07T11:02:54.851Z,20.71
2019-04-07T11:03:54.547Z,20.68
2019-04-07T11:04:51.223Z,20.83
2019-04-07T11:05:51.232Z,20.96
2019-04-07T11:06:51.751Z,21.01
2019-04-07T11:07:51.286Z,21.05
2019-04-07T11:08:51.872Z,21.18
2019-04-07T11:09:52.067Z,21.22
2019-04-07T11:10:51.318Z,21.19
2019-04-07T11:11:51.278Z,21.11
2019-04-07T11:12:51.386Z,21.00
2019-04-07T11:13:51.792Z,21.16
2019-04-07T11:14:51.287Z,21.08
2019-04-07T11:15:51.968Z,21.18
2019-04-07T11:16:51.165Z,21.24
2019-04-07T11:17:51.567Z,21.36
2019-04-07T11:18:51.790Z,21.42
2019-04-07T11:19:51.339Z,21.37
2019-04-07T11:20:51.045Z,21.40
2019-04-07T11:21:51.714Z,21.45
2019-04-07T11:22:52.037Z,21.64
2019-04-07T11:23:51.016Z,21.75
2019-04-07T11:24:51.571Z,21.85
2019-04-07T11:25:51.320Z,21.96
2019-04-07T11:26:51.701Z,22.04
2019-04-07T11:27:51.138Z,22.06
2019-04-07T11:28:50.965Z,22.09
2019-04-07T11:29:51.619Z,21.90
2019-04-07T11:30:50.992Z,21.86
2019-04-07T11:31:51.576Z,22.06
2019-04-07T11:32:50.914Z,22.19
2019-04-07T11:33:51.058Z,22.26
2019-04-07T11:34:51.266Z,22.38
2019-04-07T11:35:51.067Z,22.30
2019-04-07T11:36:51.720Z,22.44
2019-04-07T11:37:51.713Z,22.57
2019-04-07T11:38:51.579Z,22.63
2019-04-07T11:39:51.089Z,22.57
2019-04-07T11:40:51.416Z,22.46
2019-04-07T11:41:51.481Z,22.39
2019-04-07T11:42:50.840Z,22.31
2019-04-07T11:43:50.793Z,22.44
2019-04-07T11:44:51.470Z,22.57
2019-04-07T11:45:58.527Z,22.54
2019-04-07T11:46:51.953Z,22.67
2019-04-07T11:47:50.960Z,22.76
2019-04-07T11:48:51.456Z,22.78
2019-04-07T11:49:50.749Z,22.88
2019-04-07T11:50:50.722Z,22.99
2019-04-07T11:51:50.696Z,23.00
2019-04-07T11:52:51.550Z,23.16
2019-04-07T11:53:51.274Z,23.22
2019-04-07T11:54:51.138Z,23.32
2019-04-07T11:55:51.040Z,23.32
2019-04-07T11:56:50.640Z,23.56
2019-04-07T11:58:02.938Z,23.64
2019-04-07T11:58:51.622Z,23.67
2019-04-07T11:59:51.291Z,23.62
2019-04-07T12:00:51.385Z,23.54
2019-04-07T12:01:51.016Z,23.31
2019-04-07T12:02:51.835Z,23.11
2019-04-07T12:03:53.262Z,23.03
2019-04-07T12:04:50.995Z,22.74
2019-04-07T12:05:50.663Z,22.66
2019-04-07T12:06:50.533Z,22.69
2019-04-07T12:07:53.890Z,22.76
2019-04-07T12:08:51.508Z,22.74
2019-04-07T12:09:51.018Z,22.64
2019-04-07T12:10:58.558Z,22.76
2019-04-07T12:11:51.474Z,22.86
2019-04-07T12:12:50.468Z,22.85
2019-04-07T12:13:50.956Z,22.88
2019-04-07T12:14:52.461Z,22.97
2019-04-07T12:15:50.846Z,23.03
2019-04-07T12:16:50.471Z,23.04
2019-04-07T12:17:51.241Z,23.18
2019-04-07T12:18:52.380Z,23.32
2019-04-07T12:19:54.548Z,23.49
2019-04-07T12:20:51.868Z,23.54
2019-04-07T12:21:51.127Z,23.60
2019-04-07T12:22:50.354Z,23.56
2019-04-07T12:23:52.778Z,23.57
2019-04-07T12:24:50.498Z,23.69
2019-04-07T12:25:50.349Z,23.71
2019-04-07T12:26:50.633Z,23.62
2019-04-07T12:27:50.572Z,23.68
2019-04-07T12:28:51.204Z,23.45
2019-04-07T12:29:50.515Z,23.45
2019-04-07T12:30:51.183Z,23.54
2019-04-07T12:31:51.004Z,23.56
2019-04-07T12:32:50.852Z,23.57
2019-04-07T12:33:50.659Z,23.67
2019-04-07T12:34:50.936Z,23.72
2019-04-07T12:35:54.280Z,23.81
2019-04-07T12:36:50.205Z,23.87
2019-04-07T12:37:50.211Z,23.93
2019-04-07T12:38:50.984Z,23.86
2019-04-07T12:39:51.975Z,23.90
2019-04-07T12:40:51.021Z,23.87
2019-04-07T12:41:50.144Z,23.92
2019-04-07T12:42:50.312Z,23.79
2019-04-07T12:43:50.810Z,23.74
2019-04-07T12:44:50.831Z,23.82
2019-04-07T12:45:50.126Z,23.87
2019-04-07T12:46:50.972Z,24.02
2019-04-07T12:47:50.088Z,24.02
2019-04-07T12:48:50.139Z,24.02
2019-04-07T12:49:50.070Z,24.04
2019-04-07T12:50:50.929Z,24.08
2019-04-07T12:51:53.360Z,24.12
2019-04-07T12:52:51.819Z,24.11
2019-04-07T12:53:50.155Z,24.12
2019-04-07T12:54:50.352Z,24.11
2019-04-07T12:55:56.942Z,24.11
2019-04-07T12:56:51.005Z,24.02
2019-04-07T12:57:50.084Z,23.97
2019-04-07T12:58:50.611Z,23.92
2019-04-07T12:59:51.365Z,24.08
2019-04-07T13:00:57.182Z,24.02
2019-04-07T13:01:51.052Z,24.12
2019-04-07T13:02:53.260Z,24.09
2019-04-07T13:03:49.902Z,23.97
2019-04-07T13:04:50.540Z,24.02
2019-04-07T13:05:49.960Z,24.04
2019-04-07T13:06:49.897Z,24.06
2019-04-07T13:07:52.334Z,24.12